Time;durP1;ratioP1;P1;durP2;ratioP2;P2;SDS_P1;SDS_P2;PMS_P1;PMS_P2;Temp;Humidity;BMP_temperature;BMP_pressure;BME280_temperature;BME280_humidity;BME280_pressure;Samples;Min_cycle;Max_cycle;Signal;HPM_P1;HPM_P2
2022/07/22 00:00:24;;;;;;;7.88;7.07;;;;;;;25.94;53.94;99978.19;5054438;28;20117;-83
2022/07/22 00:08:20;;;;;;;8.77;7.40;;;;;;;25.89;55.37;99970.53;5029382;28;20049;-81
2022/07/22 00:10:46;;;;;;;10.02;7.70;;;;;;;25.88;55.55;99968.97;5012840;28;20045;-81
2022/07/22 00:13:11;;;;;;;10.30;7.78;;;;;;;25.84;56.04;99974.22;5012470;28;20045;-81
2022/07/22 00:15:37;;;;;;;9.15;8.18;;;;;;;25.83;56.67;99972.72;5012531;28;20493;-81
2022/07/22 00:18:02;;;;;;;8.82;7.90;;;;;;;25.81;56.60;99969.63;5011984;28;20492;-82
2022/07/22 00:20:28;;;;;;;9.23;7.95;;;;;;;25.77;57.04;99974.88;4996378;28;20060;-82
2022/07/22 00:22:54;;;;;;;10.20;7.82;;;;;;;25.76;57.37;99973.34;5013020;28;20030;-82
2022/07/22 00:25:20;;;;;;;10.23;8.23;;;;;;;25.76;57.30;99967.66;5060541;23;20053;-79
2022/07/22 00:27:46;;;;;;;11.00;8.50;;;;;;;25.72;57.56;99978.56;5019886;28;20386;-79
2022/07/22 00:30:12;;;;;;;9.77;8.30;;;;;;;25.70;57.75;99964.16;5052127;28;20098;-79
2022/07/22 00:32:37;;;;;;;10.07;8.52;;;;;;;25.64;58.21;99960.66;5052982;28;20067;-79
2022/07/22 00:35:03;;;;;;;9.60;8.45;;;;;;;25.58;58.13;99957.16;5070235;28;20090;-79
2022/07/22 00:37:29;;;;;;;10.25;8.13;;;;;;;25.55;58.70;99958.25;5053428;28;20503;-79
2022/07/22 00:39:55;;;;;;;9.25;8.35;;;;;;;25.56;58.91;99965.44;5036969;28;20075;-79
2022/07/22 00:42:21;;;;;;;8.95;7.85;;;;;;;25.53;59.07;99960.84;5020666;28;20416;-79
2022/07/22 00:44:46;;;;;;;9.48;8.57;;;;;;;25.52;59.66;99967.78;5053050;28;20068;-79
2022/07/22 00:47:12;;;;;;;9.15;8.35;;;;;;;25.45;60.33;99951.41;5071267;28;20514;-79
2022/07/22 00:49:38;;;;;;;9.77;8.15;;;;;;;25.44;60.25;99964.06;5071191;28;20500;-79
2022/07/22 00:52:05;;;;;;;9.40;8.45;;;;;;;25.42;60.14;99967.47;5053340;28;20045;-79
2022/07/22 00:54:31;;;;;;;10.50;8.48;;;;;;;25.32;60.70;99951.34;5071378;28;20040;-79
2022/07/22 00:56:57;;;;;;;10.70;8.48;;;;;;;25.33;61.10;99955.75;5070940;28;20425;-79
2022/07/22 00:59:22;;;;;;;9.52;8.65;;;;;;;25.32;61.53;99957.03;5071105;28;20041;-79
2022/07/22 01:01:48;;;;;;;10.13;9.02;;;;;;;25.30;61.73;99966.13;5070968;28;20049;-79
2022/07/22 01:04:13;;;;;;;9.45;8.45;;;;;;;25.27;61.78;99969.28;5044205;28;20044;-79
2022/07/22 01:06:44;;;;;;;12.43;9.10;;;;;;;25.20;62.08;99956.47;5033271;28;20037;-79
2022/07/22 01:09:11;;;;;;;9.93;8.82;;;;;;;25.18;62.67;99969.66;5017130;28;20048;-79
2022/07/22 01:11:36;;;;;;;9.73;8.48;;;;;;;25.17;63.13;99962.44;5033065;28;20049;-79
2022/07/22 01:14:02;;;;;;;9.57;8.68;;;;;;;25.12;63.17;99964.06;5032905;28;20406;-80
2022/07/22 01:16:28;;;;;;;13.07;9.05;;;;;;;25.08;63.73;99943.75;5032546;28;20334;-79
2022/07/22 01:18:54;;;;;;;12.18;9.63;;;;;;;24.98;63.82;99953.97;5050984;28;20068;-80
2022/07/22 01:21:20;;;;;;;10.18;8.88;;;;;;;25.06;63.41;99975.53;5032819;28;20494;-79
2022/07/22 01:23:46;;;;;;;9.63;8.27;;;;;;;25.06;63.74;99975.53;5016617;28;20045;-80
2022/07/22 01:26:12;;;;;;;12.25;9.20;;;;;;;24.96;64.19;99959.41;4999801;28;20094;-80
2022/07/22 01:28:38;;;;;;;10.05;9.05;;;;;;;24.98;64.49;99980.28;5033367;28;20045;-79
2022/07/22 01:31:04;;;;;;;10.23;9.18;;;;;;;24.96;64.30;99976.44;5036279;28;20059;-79
2022/07/22 01:33:30;;;;;;;9.95;8.90;;;;;;;24.94;64.55;99979.84;5017009;28;20037;-79
2022/07/22 01:35:55;;;;;;;9.65;8.65;;;;;;;24.88;65.07;99987.66;5034786;28;20057;-79
2022/07/22 01:38:21;;;;;;;9.60;8.68;;;;;;;24.84;65.19;99981.47;5033537;28;20056;-79
2022/07/22 01:40:46;;;;;;;9.90;8.90;;;;;;;24.84;64.86;99981.47;5034915;28;20127;-82
2022/07/22 01:43:17;;;;;;;10.07;8.95;;;;;;;24.84;65.11;99972.19;5000889;28;20512;-82
2022/07/22 01:45:44;;;;;;;11.38;8.70;;;;;;;24.80;65.00;99971.75;5001388;28;20061;-82
2022/07/22 01:48:11;;;;;;;10.02;8.48;;;;;;;24.77;65.69;99961.47;5019704;28;20509;-83
2022/07/22 01:50:37;;;;;;;11.77;9.10;;;;;;;24.75;65.87;99973.34;5020269;28;20052;-83
2022/07/22 01:53:02;;;;;;;10.55;9.18;;;;;;;24.72;66.01;99974.44;5036622;28;20045;-83
2022/07/22 01:55:28;;;;;;;9.85;8.80;;;;;;;24.71;66.03;99978.56;5053187;28;20032;-83
2022/07/22 01:57:54;;;;;;;12.50;8.98;;;;;;;24.65;65.90;99980.72;5020296;28;20075;-83
2022/07/22 02:00:25;;;;;;;10.32;9.10;;;;;;;24.68;66.12;99984.53;5037654;28;20025;-83
2022/07/22 02:02:51;;;;;;;10.05;9.05;;;;;;;24.63;66.37;99974.06;5036518;28;20044;-83
2022/07/22 02:05:17;;;;;;;10.10;9.18;;;;;;;24.63;66.17;99979.75;5019625;28;20055;-83
2022/07/22 02:07:42;;;;;;;9.70;8.30;;;;;;;24.60;66.55;99973.81;5036499;28;20086;-83
2022/07/22 02:10:09;;;;;;;10.32;9.20;;;;;;;24.53;66.10;99979.34;5052616;28;20044;-83
2022/07/22 02:12:34;;;;;;;9.50;8.43;;;;;;;24.52;66.47;99972.91;5019689;28;20033;-82
2022/07/22 02:15:02;;;;;;;9.82;8.82;;;;;;;24.48;66.58;99978.09;5068220;28;20402;-83
2022/07/22 02:17:28;;;;;;;10.00;9.00;;;;;;;24.37;67.24;99972.59;5034339;28;20513;-83
2022/07/22 02:19:53;;;;;;;10.20;9.20;;;;;;;24.45;66.62;99979.19;5052741;28;20136;-83
2022/07/22 02:22:19;;;;;;;10.82;8.82;;;;;;;24.43;66.72;99975.31;5054024;28;20029;-83
2022/07/22 02:24:46;;;;;;;10.60;9.18;;;;;;;24.42;66.55;99976.66;5020803;28;20044;-83
2022/07/22 02:27:12;;;;;;;9.55;8.55;;;;;;;24.39;67.18;99974.88;5035993;28;20524;-83
2022/07/22 02:29:39;;;;;;;12.55;8.77;;;;;;;24.39;67.07;99986.19;5036045;28;20087;-83
2022/07/22 02:32:04;;;;;;;10.32;9.13;;;;;;;24.35;67.21;99991.41;5052763;28;20056;-83
2022/07/22 02:34:30;;;;;;;10.88;8.82;;;;;;;24.28;67.62;99992.00;5053403;28;20124;-83
2022/07/22 02:36:55;;;;;;;12.30;9.60;;;;;;;24.26;67.66;99991.78;5035118;28;20079;-83
2022/07/22 02:39:21;;;;;;;14.13;8.90;;;;;;;24.25;67.84;99978.91;5035264;28;20059;-83
2022/07/22 02:41:47;;;;;;;12.65;9.43;;;;;;;24.20;68.29;99988.25;5034519;28;20053;-84
2022/07/22 02:44:12;;;;;;;10.35;8.80;;;;;;;24.16;69.00;99985.72;5034913;28;20045;-83
2022/07/22 02:46:38;;;;;;;9.82;8.93;;;;;;;24.15;68.86;99984.16;5053335;28;20528;-83
2022/07/22 02:49:18;;;;;;;10.93;9.55;;;;;;;24.15;68.68;99987.00;5051784;28;20063;-83
2022/07/22 02:51:44;;;;;;;10.73;9.63;;;;;;;24.17;68.94;99980.81;5019130;28;20033;-83
2022/07/22 02:54:09;;;;;;;11.02;9.80;;;;;;;24.17;68.85;99990.09;5035458;28;20043;-83
2022/07/22 02:56:35;;;;;;;10.40;9.13;;;;;;;24.12;68.58;99979.53;5035219;28;20086;-83
2022/07/22 02:59:01;;;;;;;12.98;9.68;;;;;;;24.11;69.16;99984.44;5019190;28;20041;-83
2022/07/22 03:01:27;;;;;;;10.68;9.30;;;;;;;24.08;69.01;99979.06;5018681;28;20398;-83
2022/07/22 03:03:58;;;;;;;12.52;8.82;;;;;;;24.10;69.30;99987.81;5053064;28;20103;-83
2022/07/22 03:06:26;;;;;;;12.95;9.15;;;;;;;24.05;69.00;99995.09;5034919;28;20037;-83
2022/07/22 03:08:57;;;;;;;12.65;9.52;;;;;;;24.04;69.21;99996.38;5019634;28;20033;-83
2022/07/22 03:11:26;;;;;;;11.93;9.05;;;;;;;23.99;68.81;99994.34;5034944;28;20071;-83
2022/07/22 03:13:51;;;;;;;9.85;8.95;;;;;;;24.01;68.77;99994.59;5053023;28;20523;-83
2022/07/22 03:16:18;;;;;;;10.88;9.27;;;;;;;24.01;68.54;100003.09;5034741;28;20453;-83
2022/07/22 03:18:46;;;;;;;10.18;9.18;;;;;;;23.99;68.58;99997.19;5035055;28;20518;-83
2022/07/22 03:21:12;;;;;;;10.50;9.43;;;;;;;23.98;67.94;100004.16;5034758;28;20035;-83
2022/07/22 03:23:37;;;;;;;11.88;9.25;;;;;;;23.96;67.82;99998.25;5034662;28;20044;-83
2022/07/22 03:26:03;;;;;;;9.25;8.40;;;;;;;24.00;67.41;100018.56;5034812;28;20037;-83
2022/07/22 03:28:29;;;;;;;10.80;8.88;;;;;;;24.00;67.34;100014.97;5034960;28;20041;-83
2022/07/22 03:30:55;;;;;;;13.70;9.25;;;;;;;23.97;67.06;100010.38;5034837;28;20041;-83
2022/07/22 03:33:20;;;;;;;11.75;8.77;;;;;;;23.93;67.50;100019.16;5052534;28;20029;-83
2022/07/22 03:35:46;;;;;;;9.85;8.93;;;;;;;23.90;67.25;100030.78;5034691;28;20410;-83
2022/07/22 03:38:13;;;;;;;10.90;8.48;;;;;;;23.90;66.28;100010.97;5018184;28;20497;-82
2022/07/22 03:40:39;;;;;;;10.02;8.70;;;;;;;23.92;66.46;100022.50;5034482;28;20053;-83
2022/07/22 03:43:05;;;;;;;10.50;8.38;;;;;;;23.92;65.82;100020.44;5034577;28;20045;-83
2022/07/22 03:45:31;;;;;;;10.85;8.90;;;;;;;23.92;65.91;100034.63;5034403;28;20171;-83
2022/07/22 03:48:00;;;;;;;9.38;8.48;;;;;;;23.90;65.98;100025.88;5034672;28;20045;-84
2022/07/22 03:50:29;;;;;;;11.73;8.73;;;;;;;23.86;66.24;100025.38;5043360;28;20063;-83
2022/07/22 03:52:55;;;;;;;10.02;8.32;;;;;;;23.87;66.20;100021.25;5034709;28;20498;-83
2022/07/22 03:55:20;;;;;;;8.80;7.90;;;;;;;23.84;66.48;100032.88;5001087;28;20068;-83
2022/07/22 03:57:50;;;;;;;9.60;8.20;;;;;;;23.85;65.90;100029.53;5034403;28;20043;-83
2022/07/22 04:00:23;;;;;;;11.00;8.63;;;;;;;23.89;65.90;100041.34;5015279;28;20157;-83
2022/07/22 04:02:49;;;;;;;8.93;7.97;;;;;;;23.94;65.60;100032.00;5031152;28;20121;-83
2022/07/22 04:05:20;;;;;;;13.27;8.90;;;;;;;23.86;65.80;100031.06;5026736;28;20516;-83
2022/07/22 04:07:47;;;;;;;10.60;8.63;;;;;;;23.90;65.69;100023.03;5034272;28;20032;-83
2022/07/22 04:10:13;;;;;;;11.85;8.43;;;;;;;23.84;66.03;100032.88;5033586;28;20090;-83
2022/07/22 04:12:42;;;;;;;8.95;8.13;;;;;;;23.90;66.08;100042.84;5034588;28;20033;-83
2022/07/22 04:15:16;;;;;;;12.73;7.97;;;;;;;23.89;66.10;100030.00;5015297;28;20045;-83
2022/07/22 04:17:43;;;;;;;11.27;8.75;;;;;;;23.90;66.26;100037.19;5014314;28;20180;-83
2022/07/22 04:20:09;;;;;;;9.43;8.15;;;;;;;23.90;66.25;100042.84;5027309;28;20048;-83
2022/07/22 04:22:55;;;;;;;10.68;7.90;;;;;;;23.90;66.41;100037.19;5036946;28;20138;-83
2022/07/22 04:25:20;;;;;;;9.90;8.07;;;;;;;23.91;66.19;100033.06;5033382;28;20510;-82
2022/07/22 04:27:46;;;;;;;9.25;8.10;;;;;;;23.95;66.17;100039.22;5017492;28;20041;-83
2022/07/22 04:30:11;;;;;;;10.18;7.85;;;;;;;23.92;66.55;100034.63;5033657;28;20052;-83
2022/07/22 04:32:39;;;;;;;9.95;7.55;;;;;;;23.96;66.40;100029.44;5033854;28;20469;-83
2022/07/22 04:35:05;;;;;;;8.90;8.02;;;;;;;24.00;65.99;100035.56;5033038;28;20049;-83
2022/07/22 04:37:32;;;;;;;11.10;7.72;;;;;;;24.01;66.95;100039.94;5033339;28;20333;-83
2022/07/22 04:39:58;;;;;;;9.68;8.00;;;;;;;24.00;66.61;100034.78;5017605;28;20486;-83
2022/07/22 04:42:24;;;;;;;9.23;8.00;;;;;;;24.03;66.33;100030.91;5033366;28;20051;-83
2022/07/22 04:44:50;;;;;;;8.23;7.40;;;;;;;24.05;66.60;100043.25;5033399;28;20094;-83
2022/07/22 04:47:15;;;;;;;8.68;7.78;;;;;;;24.06;66.96;100039.09;5033431;28;20041;-83
2022/07/22 04:49:43;;;;;;;8.38;7.40;;;;;;;24.15;66.50;100043.69;5033032;28;20405;-84
2022/07/22 04:52:11;;;;;;;9.60;7.55;;;;;;;24.20;65.95;100037.19;5033245;28;20041;-83
2022/07/22 04:54:43;;;;;;;8.38;7.57;;;;;;;24.23;66.55;100033.28;5002484;28;20543;-83
2022/07/22 04:57:09;;;;;;;8.38;7.57;;;;;;;24.28;66.25;100026.78;5032795;28;20044;-83
2022/07/22 04:59:34;;;;;;;9.18;8.27;;;;;;;24.33;65.66;100039.38;5033364;28;20049;-83
2022/07/22 05:02:01;;;;;;;8.80;7.88;;;;;;;24.42;65.51;100042.63;5016419;28;20037;-83
2022/07/22 05:04:29;;;;;;;8.63;7.80;;;;;;;24.47;65.34;100049.50;5010471;28;20353;-83
2022/07/22 05:06:55;;;;;;;8.68;7.88;;;;;;;24.55;65.22;100048.38;5032699;28;20048;-83
2022/07/22 05:09:21;;;;;;;9.30;7.72;;;;;;;24.65;64.67;100048.78;5032710;28;20052;-83
2022/07/22 05:11:47;;;;;;;8.25;7.38;;;;;;;24.70;64.64;100050.81;5032743;28;20032;-83
2022/07/22 05:14:16;;;;;;;9.82;7.93;;;;;;;24.73;64.60;100049.72;5032826;28;20144;-82
2022/07/22 05:16:42;;;;;;;9.60;7.90;;;;;;;24.81;64.38;100055.56;5050793;28;20064;-83
2022/07/22 05:19:07;;;;;;;8.35;7.55;;;;;;;24.79;64.42;100041.91;5032990;28;20032;-83
2022/07/22 05:21:33;;;;;;;8.45;7.65;;;;;;;24.89;64.32;100056.50;5032312;28;20061;-84
2022/07/22 05:23:59;;;;;;;8.60;7.60;;;;;;;24.99;63.30;100061.25;5032643;28;20048;-83
2022/07/22 05:26:28;;;;;;;10.13;8.05;;;;;;;25.06;63.02;100059.91;5032405;28;20033;-83
2022/07/22 05:28:54;;;;;;;8.68;7.85;;;;;;;25.11;62.57;100058.28;5033443;28;20051;-83
2022/07/22 05:31:19;;;;;;;8.85;8.00;;;;;;;25.19;62.95;100059.19;5032464;28;20402;-83
2022/07/22 05:33:45;;;;;;;9.60;7.80;;;;;;;25.42;61.56;100064.00;5033011;28;20037;-84
2022/07/22 05:36:29;;;;;;;8.80;7.78;;;;;;;25.43;61.40;100065.53;5049376;28;20138;-83
2022/07/22 05:38:56;;;;;;;9.32;8.30;;;;;;;25.44;61.46;100054.94;5032793;28;20061;-83
2022/07/22 05:41:21;;;;;;;8.32;7.53;;;;;;;25.57;61.08;100052.19;5032397;28;20446;-83
2022/07/22 05:43:47;;;;;;;8.65;7.50;;;;;;;25.55;61.53;100060.50;5032986;28;20041;-83
2022/07/22 05:46:13;;;;;;;9.25;8.27;;;;;;;25.67;60.47;100055.38;4999835;28;20037;-83
2022/07/22 05:48:38;;;;;;;9.75;8.15;;;;;;;25.85;60.39;100055.31;5016540;28;20139;-83
2022/07/22 05:51:10;;;;;;;10.13;7.85;;;;;;;26.11;59.46;100053.84;5032391;28;20052;-83
2022/07/22 05:53:36;;;;;;;8.02;7.10;;;;;;;26.23;59.45;100050.28;5032625;28;20251;-83
2022/07/22 05:56:01;;;;;;;8.70;7.80;;;;;;;26.50;58.36;100059.56;5032880;28;20575;-83
2022/07/22 05:58:31;;;;;;;8.63;7.55;;;;;;;26.65;57.69;100050.50;5049150;28;20064;-81
2022/07/22 06:00:58;;;;;;;8.32;7.40;;;;;;;26.51;57.59;100051.81;5048964;28;20049;-81
2022/07/22 06:03:24;;;;;;;9.90;7.68;;;;;;;26.33;57.49;100037.16;5032773;28;20395;-81
2022/07/22 06:05:49;;;;;;;8.98;7.50;;;;;;;26.52;58.02;100048.44;5032247;28;20048;-81
2022/07/22 06:08:15;;;;;;;9.60;7.55;;;;;;;26.81;56.79;100041.59;5032497;28;20099;-82
2022/07/22 06:10:44;;;;;;;9.95;8.32;;;;;;;26.84;56.62;100051.94;5016497;28;20508;-82
2022/07/22 06:13:10;;;;;;;8.73;7.90;;;;;;;26.79;56.30;100058.47;5032456;28;20037;-82
2022/07/22 06:15:36;;;;;;;9.77;7.63;;;;;;;26.89;56.14;100053.88;5033949;28;20517;-82
2022/07/22 06:18:02;;;;;;;12.48;7.70;;;;;;;27.01;55.44;100059.34;5036532;28;20059;-83
2022/07/22 06:20:28;;;;;;;9.27;7.70;;;;;;;27.02;55.68;100055.94;5035620;28;20530;-82
2022/07/22 06:22:54;;;;;;;8.52;7.72;;;;;;;27.00;54.96;100061.41;5036459;28;20565;-80
2022/07/22 06:25:19;;;;;;;8.70;7.93;;;;;;;27.21;55.32;100061.47;5035533;28;20049;-82
2022/07/22 06:27:45;;;;;;;11.68;7.90;;;;;;;27.37;54.80;100068.88;5036156;28;20040;-82
2022/07/22 06:30:12;;;;;;;8.18;7.38;;;;;;;27.58;53.94;100072.50;5035861;28;20457;-82
2022/07/22 06:32:37;;;;;;;8.73;7.88;;;;;;;27.55;54.09;100072.88;5019316;28;20120;-82
2022/07/22 06:35:04;;;;;;;8.63;7.72;;;;;;;27.49;54.33;100075.88;5035600;28;20048;-82
2022/07/22 06:37:32;;;;;;;9.05;8.05;;;;;;;27.56;54.32;100063.78;5035831;28;20128;-82
2022/07/22 06:39:58;;;;;;;9.45;7.85;;;;;;;27.73;53.17;100081.22;5035760;28;20045;-82
2022/07/22 06:42:34;;;;;;;8.18;7.38;;;;;;;27.79;54.42;100075.38;5035386;28;20032;-82
2022/07/22 06:45:18;;;;;;;10.93;8.20;;;;;;;28.10;53.72;100071.50;5038747;28;20103;-81
2022/07/22 06:48:04;;;;;;;8.50;7.60;;;;;;;28.42;52.66;100074.03;5035511;28;20045;-83
2022/07/22 06:50:30;;;;;;;9.75;7.53;;;;;;;28.65;51.01;100077.78;5018861;28;20547;-83
2022/07/22 06:52:57;;;;;;;9.98;7.72;;;;;;;28.84;50.96;100073.88;5035536;28;20044;-83
2022/07/22 06:55:23;;;;;;;9.38;7.57;;;;;;;28.78;51.00;100067.59;5018452;28;20667;-83
2022/07/22 06:58:08;;;;;;;8.68;7.78;;;;;;;28.90;50.00;100074.50;5035384;28;20545;-83
2022/07/22 07:00:33;;;;;;;8.65;7.80;;;;;;;29.16;48.87;100068.50;5048431;28;20077;-83
2022/07/22 07:03:16;;;;;;;;;;;;;;;29.12;49.22;100076.66;5035497;28;20387;-83
2022/07/22 07:05:42;;;;;;;8.90;7.65;;;;;;;29.14;49.08;100068.31;5035147;28;20059;-83
2022/07/22 07:08:08;;;;;;;8.60;7.70;;;;;;;29.24;48.64;100080.72;5035511;28;20078;-83
2022/07/22 07:10:35;;;;;;;9.07;7.55;;;;;;;29.19;48.56;100073.88;5034796;28;20052;-83
2022/07/22 07:13:06;;;;;;;8.35;7.40;;;;;;;29.35;48.15;100071.84;5035113;28;20120;-83
2022/07/22 07:15:40;;;;;;;8.13;7.32;;;;;;;29.41;48.64;100083.84;5034671;28;20139;-83
2022/07/22 07:18:08;;;;;;;10.15;8.18;;;;;;;29.44;48.13;100079.84;5034733;28;20037;-84
2022/07/22 07:20:34;;;;;;;11.80;7.55;;;;;;;29.55;48.10;100073.78;5034333;28;20059;-84
2022/07/22 07:23:01;;;;;;;10.00;7.78;;;;;;;29.80;47.07;100076.09;5035201;28;20083;-83
2022/07/22 07:25:28;;;;;;;8.35;7.50;;;;;;;30.05;45.94;100080.72;5034298;28;20064;-83
2022/07/22 07:27:54;;;;;;;8.10;7.40;;;;;;;30.06;45.13;100081.47;5034426;28;20425;-83
2022/07/22 07:30:26;;;;;;;24.88;8.88;;;;;;;30.25;46.00;100075.38;5018595;28;20049;-83
2022/07/22 07:32:52;;;;;;;8.38;7.65;;;;;;;30.20;45.27;100073.47;5035235;28;20055;-83
2022/07/22 07:35:18;;;;;;;9.20;8.23;;;;;;;30.51;45.39;100075.72;5014329;28;20045;-82
2022/07/22 07:37:43;;;;;;;10.90;7.25;;;;;;;30.25;44.83;100076.13;5031508;28;20034;-83
2022/07/22 07:40:09;;;;;;;9.10;7.25;;;;;;;30.32;43.79;100081.09;5014930;28;20034;-83
2022/07/22 07:42:35;;;;;;;18.50;7.80;;;;;;;30.43;44.10;100079.91;5031024;28;20579;-83
2022/07/22 07:45:01;;;;;;;9.10;7.18;;;;;;;30.72;43.42;100080.44;5031280;28;20037;-83
2022/07/22 07:47:27;;;;;;;15.57;8.35;;;;;;;30.87;43.49;100071.81;5014345;28;20104;-82
2022/07/22 07:49:52;;;;;;;7.57;6.78;;;;;;;31.04;42.62;100069.09;5034040;28;20052;-83
2022/07/22 07:52:18;;;;;;;8.40;7.05;;;;;;;31.20;42.25;100076.28;5033890;28;20048;-83
2022/07/22 07:54:45;;;;;;;9.52;7.18;;;;;;;31.66;41.80;100076.81;5034423;28;20578;-83
2022/07/22 07:57:10;;;;;;;11.15;7.38;;;;;;;31.99;41.00;100071.03;5017723;28;20037;-83
2022/07/22 07:59:38;;;;;;;12.65;7.70;;;;;;;32.12;40.67;100074.34;5017869;28;20048;-83
2022/07/22 08:02:05;;;;;;;7.93;7.13;;;;;;;32.08;40.40;100071.13;5034020;28;20075;-83
2022/07/22 08:04:32;;;;;;;18.27;7.90;;;;;;;32.39;39.55;100078.09;5050596;28;20076;-83
2022/07/22 08:06:57;;;;;;;8.02;7.13;;;;;;;32.24;38.81;100075.41;5027865;28;20045;-83
2022/07/22 08:09:24;;;;;;;9.07;7.35;;;;;;;32.25;40.57;100067.53;5030493;28;20400;-83
2022/07/22 08:11:50;;;;;;;8.75;7.10;;;;;;;32.33;39.88;100069.00;5030356;28;20076;-83
2022/07/22 08:14:39;;;;;;;8.98;8.02;;;;;;;32.58;39.45;100066.06;5037120;28;20037;-83
2022/07/22 08:17:23;;;;;;;8.63;6.93;;;;;;;32.52;38.36;100073.41;5036035;28;20037;-80
2022/07/22 08:19:49;;;;;;;7.88;7.07;;;;;;;32.49;37.37;100077.44;5033550;28;20052;-83
2022/07/22 08:22:17;;;;;;;7.68;6.97;;;;;;;32.26;37.89;100069.84;5051359;28;20041;-83
2022/07/22 08:24:44;;;;;;;9.50;7.07;;;;;;;32.01;39.20;100071.94;5033150;28;20473;-83
2022/07/22 08:27:14;;;;;;;9.68;7.18;;;;;;;31.92;39.30;100075.44;5033209;28;20068;-83
2022/07/22 08:29:41;;;;;;;8.25;7.18;;;;;;;32.05;38.71;100075.16;5033230;28;20049;-83
2022/07/22 08:32:07;;;;;;;7.25;6.57;;;;;;;31.91;39.53;100071.81;5016874;28;20044;-83
2022/07/22 08:34:32;;;;;;;9.23;7.15;;;;;;;32.18;39.30;100074.91;5033289;28;20498;-83
2022/07/22 08:36:58;;;;;;;9.75;7.22;;;;;;;32.19;38.45;100070.66;5033078;28;20127;-83
2022/07/22 08:39:24;;;;;;;12.07;7.47;;;;;;;32.62;37.90;100080.03;5032576;28;20553;-83
2022/07/22 08:41:51;;;;;;;8.55;7.35;;;;;;;32.87;37.10;100077.84;5000946;28;20560;-83
2022/07/22 08:44:17;;;;;;;8.50;7.53;;;;;;;32.88;37.09;100073.59;5033336;28;20057;-83
2022/07/22 08:46:46;;;;;;;9.32;7.35;;;;;;;32.76;37.08;100076.22;5016305;28;20033;-83
2022/07/22 08:49:17;;;;;;;7.85;6.38;;;;;;;32.66;37.51;100074.63;5050921;28;20068;-83
2022/07/22 08:52:03;;;;;;;8.15;6.93;;;;;;;33.05;36.89;100073.56;4995694;28;20052;-83
2022/07/22 08:54:35;;;;;;;9.70;8.70;;;;;;;33.03;36.74;100067.66;5017685;28;20037;-83
2022/07/22 08:57:02;;;;;;;8.85;7.93;;;;;;;33.35;35.98;100060.94;5049577;28;20045;-83
2022/07/22 08:59:27;;;;;;;8.75;6.90;;;;;;;33.33;36.46;100068.63;5033013;28;20044;-84
2022/07/22 09:02:08;;;;;;;7.57;6.88;;;;;;;33.48;36.64;100071.31;5032740;28;20080;-83
2022/07/22 09:04:54;;;;;;;7.70;7.00;;;;;;;33.50;36.57;100062.81;5032415;28;20536;-83
2022/07/22 09:07:31;;;;;;;7.53;6.82;;;;;;;33.36;36.10;100058.84;5050660;28;20048;-84
2022/07/22 09:10:12;;;;;;;9.45;7.18;;;;;;;33.61;35.24;100062.28;5018196;28;20076;-84
2022/07/22 09:13:02;;;;;;;8.80;7.38;;;;;;;33.71;34.69;100068.88;5035899;28;20331;-83
2022/07/22 09:15:48;;;;;;;7.55;6.63;;;;;;;33.87;34.28;100061.50;5034883;28;20071;-84
2022/07/22 09:18:45;;;;;;;7.78;6.97;;;;;;;34.09;34.36;100054.59;5050578;28;20079;-84
2022/07/22 09:21:46;;;;;;;8.10;7.30;;;;;;;33.91;34.92;100056.06;5018363;28;20433;-84
2022/07/22 09:24:32;;;;;;;9.35;7.28;;;;;;;34.88;33.24;100066.41;5018039;28;20124;-84
2022/07/22 09:27:25;;;;;;;20.25;7.50;;;;;;;35.19;32.76;100062.91;5035112;28;20045;-84
2022/07/22 09:30:23;;;;;;;7.88;7.07;;;;;;;34.68;32.50;100047.63;5032822;28;20139;-84
2022/07/22 09:32:59;;;;;;;10.93;7.43;;;;;;;34.87;33.12;100064.91;5017533;28;20048;-82
2022/07/22 09:35:51;;;;;;;9.93;6.75;;;;;;;35.24;31.35;100061.84;5047128;28;20049;-81
2022/07/22 09:38:28;;;;;;;7.47;6.72;;;;;;;35.14;31.74;100058.22;5032854;28;20080;-81
2022/07/22 09:40:55;;;;;;;8.55;7.68;;;;;;;35.26;31.68;100053.34;5016276;28;20593;-81
2022/07/22 09:43:21;;;;;;;11.70;7.15;;;;;;;35.62;31.16;100040.78;5032542;28;20120;-81
2022/07/22 09:45:47;;;;;;;7.68;6.72;;;;;;;35.88;30.75;100049.19;5050303;28;20025;-81
2022/07/22 09:48:15;;;;;;;8.90;6.72;;;;;;;35.69;31.09;100052.16;5032544;28;20041;-81
2022/07/22 09:50:59;;;;;;;10.52;7.20;;;;;;;35.31;30.77;100058.03;5037014;28;20666;-81
2022/07/22 09:53:34;;;;;;;7.82;6.88;;;;;;;35.44;29.95;100048.88;5037998;28;20037;-81
2022/07/22 09:56:05;;;;;;;11.10;7.10;;;;;;;34.72;30.98;100042.16;5036580;28;20048;-83
2022/07/22 09:58:32;;;;;;;10.95;7.35;;;;;;;34.81;31.68;100052.16;5020504;28;20041;-83
2022/07/22 10:01:02;;;;;;;10.32;7.38;;;;;;;34.33;32.29;100047.13;5003735;28;20029;-83
2022/07/22 10:03:30;;;;;;;8.50;7.00;;;;;;;34.56;32.13;100052.44;5019924;28;20171;-84
2022/07/22 10:05:59;;;;;;;9.02;7.07;;;;;;;34.62;33.21;100050.75;5019970;28;20094;-83
2022/07/22 10:08:27;;;;;;;9.70;6.57;;;;;;;34.83;32.68;100044.41;5036698;28;20045;-83
2022/07/22 10:10:53;;;;;;;8.35;6.88;;;;;;;35.37;31.07;100035.41;5037410;28;20075;-84
2022/07/22 10:13:19;;;;;;;8.38;7.55;;;;;;;35.66;30.39;100035.34;5054398;28;20041;-82
2022/07/22 10:15:46;;;;;;;9.02;6.65;;;;;;;35.57;31.12;100031.09;5020153;28;20049;-83
2022/07/22 10:18:18;;;;;;;9.95;6.90;;;;;;;35.32;30.46;100033.59;5036141;28;20122;-83
2022/07/22 10:20:46;;;;;;;7.55;6.85;;;;;;;34.64;31.69;100035.75;5032627;28;20041;-82
2022/07/22 10:23:13;;;;;;;10.65;7.38;;;;;;;34.96;31.60;100032.44;5034241;28;20560;-83
2022/07/22 10:25:59;;;;;;;9.93;7.07;;;;;;;35.03;31.18;100031.50;5016445;28;20041;-84
2022/07/22 10:28:28;;;;;;;7.43;6.45;;;;;;;34.79;32.04;100021.06;5016636;28;20046;-82
2022/07/22 10:31:24;;;;;;;7.25;6.50;;;;;;;34.89;30.89;100027.59;5016378;28;20060;-81
2022/07/22 10:33:54;;;;;;;9.32;6.60;;;;;;;35.29;31.16;100023.28;5028999;28;20095;-83
2022/07/22 10:36:34;;;;;;;8.38;6.97;;;;;;;35.60;30.73;100018.31;5037416;28;20098;-84
2022/07/22 10:39:06;;;;;;;7.43;6.70;;;;;;;35.47;29.97;100010.16;5035800;28;20041;-82
2022/07/22 10:41:37;;;;;;;7.47;6.70;;;;;;;35.36;30.76;100007.94;5053302;28;20506;-84
2022/07/22 10:44:03;;;;;;;9.85;6.90;;;;;;;35.62;29.83;100015.59;5053824;28;20041;-84
2022/07/22 10:46:50;;;;;;;9.73;6.45;;;;;;;35.98;30.28;100003.72;5035532;28;20033;-83
2022/07/22 10:49:17;;;;;;;7.65;6.85;;;;;;;36.23;30.30;100002.53;5036108;28;20092;-84
2022/07/22 10:52:08;;;;;;;8.15;6.43;;;;;;;36.13;30.11;100004.72;5034912;28;20052;-83
2022/07/22 10:55:14;;;;;;;8.00;6.60;;;;;;;36.73;28.08;99997.25;5035820;28;20509;-81
2022/07/22 10:57:40;;;;;;;9.38;6.57;;;;;;;36.83;28.47;99997.94;5018506;28;20049;-81
2022/07/22 11:00:06;;;;;;;8.18;6.57;;;;;;;36.97;29.38;99997.31;5035716;28;20402;-81
2022/07/22 11:02:33;;;;;;;7.03;6.32;;;;;;;37.01;27.56;99992.56;5051721;28;20029;-79
2022/07/22 11:04:59;;;;;;;6.70;6.10;;;;;;;36.92;27.28;99994.16;5035263;28;20521;-81
2022/07/22 11:07:27;;;;;;;7.28;6.43;;;;;;;37.20;27.25;99997.41;5052411;28;20110;-82
2022/07/22 11:09:53;;;;;;;9.00;6.93;;;;;;;37.14;27.42;99994.13;5053265;28;20040;-82
2022/07/22 11:12:18;;;;;;;10.70;6.15;;;;;;;37.12;27.40;99991.13;5034951;28;20044;-81
2022/07/22 11:14:45;;;;;;;7.22;6.53;;;;;;;36.87;27.61;99997.44;5052710;28;20120;-81
2022/07/22 11:17:14;;;;;;;7.05;6.35;;;;;;;37.30;27.29;99981.44;5052907;28;20052;-82
2022/07/22 11:19:40;;;;;;;7.97;5.72;;;;;;;36.96;27.61;99984.25;5052681;28;20387;-82
2022/07/22 11:22:16;;;;;;;7.03;6.32;;;;;;;37.40;26.93;99984.22;5034727;28;20052;-81
2022/07/22 11:24:43;;;;;;;7.38;6.03;;;;;;;37.60;25.81;99976.09;5052055;28;20045;-82
2022/07/22 11:27:17;;;;;;;7.32;6.32;;;;;;;37.45;25.75;99980.19;5034639;28;20068;-80
2022/07/22 11:29:47;;;;;;;8.57;6.95;;;;;;;37.67;25.99;99967.16;5034355;28;20520;-80
2022/07/22 11:32:14;;;;;;;10.88;6.63;;;;;;;37.75;26.03;99967.63;5052717;28;20041;-81
2022/07/22 11:34:50;;;;;;;7.78;6.80;;;;;;;38.04;26.38;99972.28;5018070;28;20029;-80
2022/07/22 11:37:24;;;;;;;7.05;6.43;;;;;;;37.49;26.86;99963.09;5003015;28;20052;-80
2022/07/22 11:39:50;;;;;;;7.38;6.68;;;;;;;36.19;28.06;99956.03;5052075;28;20041;-80